Ansonia, Connecticut
Current Conditions -  °F | °C
As of 10:55 PM on Tuesday 27 Jan 2015 (Local Time) from KOXC Reporting Station
Overcast Overcast  
Wind Chill: -5°   Ceiling: 2800
Heat Index: 12°   Visibility: 5mi
Dew Point:   Wind: 18mph
Humidity: 57%   Direction: 340°NNW
Pressure: 29.73"   Gusts: 29mph
Location:  41.34°N, 73.08°W
Report Text: KOXC 280355Z 34016G25KT 5SM BKN028 OVC042 M11/M18 A2973 RMK AO1
Loading
Personal Weather Stations






























Interactive Weather Map New forecast layout! Learn more

10-Day Weather Forecast

Advertisements
Track Severe Weather on mobile